createdAt,value
2017-10-04T00:01:51.059Z,92.90
2017-10-04T00:04:19.377Z,93.10
2017-10-04T00:06:46.929Z,93.00
2017-10-04T00:09:14.518Z,93.00
2017-10-04T00:11:42.097Z,92.70
2017-10-04T00:14:09.698Z,92.60
2017-10-04T00:16:38.013Z,92.90
2017-10-04T00:19:05.571Z,92.80
2017-10-04T00:21:33.163Z,92.80
2017-10-04T00:24:00.744Z,92.20
2017-10-04T00:26:28.362Z,93.00
2017-10-04T00:28:55.929Z,92.70
2017-10-04T00:31:23.503Z,93.20
2017-10-04T00:33:51.194Z,92.70
2017-10-04T00:36:18.781Z,92.80
2017-10-04T00:38:46.387Z,92.80
2017-10-04T00:41:13.959Z,92.80
2017-10-04T00:43:41.516Z,92.80
2017-10-04T00:46:09.103Z,93.00
2017-10-04T00:48:36.671Z,92.70
2017-10-04T00:51:04.290Z,92.30
2017-10-04T00:53:32.626Z,92.60
2017-10-04T00:56:00.191Z,92.60
2017-10-04T00:58:27.862Z,92.60
2017-10-04T01:00:55.440Z,92.50
2017-10-04T01:03:23.818Z,92.70
2017-10-04T01:05:51.403Z,92.70
2017-10-04T01:08:19.725Z,91.80
2017-10-04T01:10:47.329Z,91.80
2017-10-04T01:13:14.906Z,92.70
2017-10-04T01:15:42.499Z,92.60
2017-10-04T01:18:10.070Z,91.80
2017-10-04T01:20:37.653Z,92.70
2017-10-04T01:23:05.256Z,91.90
2017-10-04T01:25:32.824Z,92.20
2017-10-04T01:28:00.432Z,92.30
2017-10-04T01:30:27.998Z,92.00
2017-10-04T01:32:55.588Z,92.20
2017-10-04T01:35:23.176Z,92.30
2017-10-04T01:37:50.755Z,92.10
2017-10-04T01:40:19.131Z,92.10
2017-10-04T01:42:46.688Z,92.10
2017-10-04T01:45:14.297Z,93.20
2017-10-04T01:47:41.871Z,92.60
2017-10-04T01:50:09.467Z,92.40
2017-10-04T01:52:37.039Z,92.40
2017-10-04T01:55:04.608Z,92.40
2017-10-04T01:57:32.765Z,92.50
2017-10-04T02:00:00.338Z,91.90
2017-10-04T02:02:27.929Z,92.50
2017-10-04T02:04:56.240Z,92.00
2017-10-04T02:07:23.821Z,92.00
2017-10-04T02:09:51.414Z,92.10
2017-10-04T02:12:18.978Z,92.20
2017-10-04T02:14:46.589Z,91.60
2017-10-04T02:17:14.909Z,91.80
2017-10-04T02:19:42.515Z,91.80
2017-10-04T02:22:10.871Z,92.10
2017-10-04T02:24:38.667Z,92.10
2017-10-04T02:27:07.191Z,91.80
2017-10-04T02:29:34.936Z,91.80
2017-10-04T02:32:02.570Z,92.20
2017-10-04T02:34:30.198Z,92.20
2017-10-04T02:36:57.785Z,92.00
2017-10-04T02:39:25.420Z,91.90
2017-10-04T02:41:53.001Z,92.00
2017-10-04T02:44:20.839Z,91.90
2017-10-04T02:46:48.513Z,92.10
2017-10-04T02:49:16.098Z,92.20
2017-10-04T02:51:43.670Z,91.90
2017-10-04T02:54:11.319Z,91.60
2017-10-04T02:56:38.872Z,91.80
2017-10-04T02:59:06.436Z,91.80
2017-10-04T03:01:34.022Z,91.80
2017-10-04T03:04:01.605Z,92.10
2017-10-04T03:06:29.199Z,92.00
2017-10-04T03:08:57.009Z,92.00
2017-10-04T03:11:24.597Z,92.30
2017-10-04T03:13:52.152Z,92.50
2017-10-04T03:16:19.730Z,92.40
2017-10-04T03:18:47.331Z,92.40
2017-10-04T03:21:16.297Z,92.00
2017-10-04T03:23:43.901Z,92.00
2017-10-04T03:26:11.475Z,92.10
2017-10-04T03:28:39.071Z,91.90
2017-10-04T03:31:06.644Z,92.00
2017-10-04T03:33:34.285Z,91.90
2017-10-04T03:36:01.870Z,91.80
2017-10-04T03:38:29.467Z,91.80
2017-10-04T03:40:58.124Z,91.60
2017-10-04T03:43:25.681Z,91.60
2017-10-04T03:45:53.279Z,91.70
2017-10-04T03:48:21.843Z,91.40
2017-10-04T03:50:49.433Z,92.30
2017-10-04T03:53:17.011Z,92.10
2017-10-04T03:55:45.388Z,91.70
2017-10-04T03:58:13.713Z,91.70
2017-10-04T04:00:41.328Z,91.70
2017-10-04T04:03:09.691Z,92.20
2017-10-04T04:05:37.267Z,92.20
2017-10-04T04:08:04.871Z,92.00
2017-10-04T04:10:32.420Z,92.60
2017-10-04T04:13:00.990Z,91.90
2017-10-04T04:15:31.249Z,92.20
2017-10-04T04:17:58.819Z,92.20
2017-10-04T04:20:26.432Z,92.40
2017-10-04T04:22:54.020Z,92.30
2017-10-04T04:25:22.384Z,92.30
2017-10-04T04:27:49.961Z,92.30
2017-10-04T04:30:18.330Z,92.10
2017-10-04T04:32:45.903Z,92.10
2017-10-04T04:35:14.252Z,92.80
2017-10-04T04:37:41.846Z,92.40
2017-10-04T04:40:10.214Z,92.40
2017-10-04T04:42:39.488Z,92.40
2017-10-04T04:45:07.047Z,92.50
2017-10-04T04:47:34.622Z,92.40
2017-10-04T04:50:02.205Z,92.40
2017-10-04T04:52:29.792Z,92.60
2017-10-04T04:54:58.127Z,92.80
2017-10-04T04:57:25.718Z,92.80
2017-10-04T04:59:53.296Z,92.60
2017-10-04T05:02:20.885Z,92.40
2017-10-04T05:04:48.475Z,92.40
2017-10-04T05:07:16.033Z,92.60
2017-10-04T05:09:43.702Z,92.30
2017-10-04T05:12:11.279Z,92.40
2017-10-04T05:14:38.875Z,92.70
2017-10-04T05:17:06.479Z,92.80
2017-10-04T05:19:34.067Z,92.80
2017-10-04T05:22:01.650Z,92.70
2017-10-04T05:24:29.260Z,93.10
2017-10-04T05:26:57.603Z,92.50
2017-10-04T05:29:25.195Z,92.50
2017-10-04T05:31:53.548Z,92.70
2017-10-04T05:34:21.166Z,92.60
2017-10-04T05:36:48.758Z,92.70
2017-10-04T05:39:16.395Z,92.60
2017-10-04T05:41:43.955Z,92.50
2017-10-04T05:44:11.543Z,92.80
2017-10-04T05:46:39.157Z,92.50
2017-10-04T05:49:06.731Z,92.60
2017-10-04T05:51:35.073Z,92.60
2017-10-04T05:54:02.665Z,92.50
2017-10-04T05:56:30.263Z,92.90
2017-10-04T05:58:57.846Z,92.50
2017-10-04T06:01:25.451Z,92.90
2017-10-04T06:03:53.149Z,92.90
2017-10-04T06:06:20.743Z,92.70
2017-10-04T06:08:48.318Z,93.00
2017-10-04T06:11:15.919Z,93.30
2017-10-04T06:13:44.527Z,93.40
2017-10-04T06:16:12.862Z,93.00
2017-10-04T06:18:40.440Z,93.00
2017-10-04T06:21:08.021Z,93.30
2017-10-04T06:23:36.365Z,93.20
2017-10-04T06:26:03.930Z,93.20
2017-10-04T06:28:32.332Z,93.40
2017-10-04T06:30:59.921Z,93.50
2017-10-04T06:33:28.287Z,93.60
2017-10-04T06:35:56.247Z,93.60
2017-10-04T06:38:23.863Z,93.50
2017-10-04T06:40:51.445Z,93.00
2017-10-04T06:43:19.019Z,93.10
2017-10-04T06:45:46.617Z,93.00
2017-10-04T06:48:14.204Z,93.40
2017-10-04T06:50:42.616Z,93.10
2017-10-04T06:53:10.263Z,93.10
2017-10-04T06:55:37.841Z,93.40
2017-10-04T06:58:05.419Z,93.00
2017-10-04T07:00:33.014Z,93.10
2017-10-04T07:03:00.573Z,93.20
2017-10-04T07:05:28.167Z,92.80
2017-10-04T07:07:56.505Z,92.90
2017-10-04T07:10:24.099Z,92.90
2017-10-04T07:12:51.676Z,93.30
2017-10-04T07:15:20.019Z,92.80
2017-10-04T07:17:47.598Z,92.80
2017-10-04T07:20:15.189Z,92.80
2017-10-04T07:22:43.570Z,92.90
2017-10-04T07:25:11.932Z,93.10
2017-10-04T07:27:40.299Z,93.00
2017-10-04T07:30:07.938Z,93.10
2017-10-04T07:32:35.531Z,93.10
2017-10-04T07:35:03.098Z,92.70
2017-10-04T07:37:30.699Z,92.60
2017-10-04T07:39:59.047Z,92.20
2017-10-04T07:42:26.639Z,92.20
2017-10-04T07:44:54.969Z,92.10
2017-10-04T07:47:22.567Z,92.10
2017-10-04T07:49:50.157Z,91.20
2017-10-04T07:52:17.747Z,91.40
2017-10-04T07:54:45.341Z,91.70
2017-10-04T07:57:12.947Z,91.60
2017-10-04T07:59:40.532Z,91.90
2017-10-04T08:02:08.177Z,91.70
2017-10-04T08:04:36.589Z,91.60
2017-10-04T08:07:04.144Z,91.60
2017-10-04T08:09:32.123Z,91.20
2017-10-04T08:11:59.709Z,91.30
2017-10-04T08:14:27.621Z,90.90
2017-10-04T08:16:55.959Z,91.00
2017-10-04T08:19:23.541Z,91.00
2017-10-04T08:21:51.110Z,91.20
2017-10-04T08:24:18.726Z,91.50
2017-10-04T08:26:46.304Z,91.70
2017-10-04T08:29:13.887Z,91.80
2017-10-04T08:31:41.483Z,91.40
2017-10-04T08:34:09.815Z,91.80
2017-10-04T08:36:37.421Z,91.80
2017-10-04T08:39:05.143Z,92.00
2017-10-04T08:41:32.812Z,91.40
2017-10-04T08:44:00.409Z,90.70
2017-10-04T08:46:28.054Z,90.40
2017-10-04T08:48:55.654Z,90.90
2017-10-04T08:51:24.053Z,90.10
2017-10-04T08:53:52.445Z,90.10
2017-10-04T08:56:20.351Z,90.10
2017-10-04T08:58:47.955Z,89.70
2017-10-04T09:01:15.570Z,90.10
2017-10-04T09:03:43.459Z,90.00
2017-10-04T09:06:13.896Z,89.10
2017-10-04T09:08:41.532Z,89.90
2017-10-04T09:11:09.137Z,88.20
2017-10-04T09:13:38.235Z,86.10
2017-10-04T09:16:05.849Z,86.00
2017-10-04T09:18:33.433Z,85.50
2017-10-04T09:21:01.019Z,84.20
2017-10-04T09:23:28.604Z,84.50
2017-10-04T09:25:56.214Z,83.40
2017-10-04T09:28:23.798Z,86.60
2017-10-04T09:30:51.757Z,85.90
2017-10-04T09:33:19.427Z,84.80
2017-10-04T09:35:47.021Z,85.50
2017-10-04T09:38:14.635Z,85.30
2017-10-04T09:40:42.200Z,85.80
2017-10-04T09:43:09.809Z,84.60
2017-10-04T09:45:37.388Z,85.90
2017-10-04T09:48:04.987Z,85.30
2017-10-04T09:50:32.552Z,87.20
2017-10-04T09:53:00.143Z,87.30
2017-10-04T09:55:27.715Z,87.50
2017-10-04T09:57:55.286Z,87.30
2017-10-04T10:00:22.931Z,88.10
2017-10-04T10:02:50.707Z,87.90
2017-10-04T10:05:18.418Z,87.80
2017-10-04T10:07:46.007Z,85.80
2017-10-04T10:10:13.593Z,86.10
2017-10-04T10:12:41.178Z,86.30
2017-10-04T10:15:08.759Z,86.70
2017-10-04T10:17:36.337Z,85.70
2017-10-04T10:20:03.888Z,86.50
2017-10-04T10:22:31.468Z,83.40
2017-10-04T10:24:59.795Z,84.20
2017-10-04T10:27:27.391Z,84.10
2017-10-04T10:29:54.954Z,84.00
2017-10-04T10:32:22.523Z,84.20
2017-10-04T10:34:50.945Z,82.30
2017-10-04T10:37:18.885Z,82.40
2017-10-04T10:39:46.631Z,81.50
2017-10-04T10:42:14.275Z,81.80
2017-10-04T10:44:41.877Z,81.60
2017-10-04T10:47:09.461Z,81.10
2017-10-04T10:49:37.839Z,80.30
2017-10-04T10:52:06.265Z,79.30
2017-10-04T10:54:33.841Z,78.60
2017-10-04T10:57:01.417Z,77.50
2017-10-04T10:59:29.091Z,76.40
2017-10-04T11:01:56.735Z,75.40
2017-10-04T11:04:24.355Z,73.70
2017-10-04T11:06:52.697Z,73.20
2017-10-04T11:09:20.319Z,73.30
2017-10-04T11:11:48.010Z,73.90
2017-10-04T11:14:15.880Z,74.40
2017-10-04T11:16:43.458Z,72.50
2017-10-04T11:19:11.093Z,73.40
2017-10-04T11:21:38.690Z,72.70
2017-10-04T11:24:06.276Z,74.30
2017-10-04T11:26:35.480Z,77.00
2017-10-04T11:29:03.086Z,76.90
2017-10-04T11:31:30.637Z,76.50
2017-10-04T11:33:58.990Z,78.40
2017-10-04T11:36:27.550Z,78.30
2017-10-04T11:38:55.125Z,76.40
2017-10-04T11:41:22.715Z,77.50
2017-10-04T11:43:50.283Z,77.60
2017-10-04T11:46:18.793Z,77.00
2017-10-04T11:48:46.379Z,77.00
2017-10-04T11:51:14.004Z,77.50
2017-10-04T11:53:42.365Z,78.60
2017-10-04T11:56:09.967Z,78.60
2017-10-04T11:58:37.551Z,77.50
2017-10-04T12:01:05.110Z,78.90
2017-10-04T12:03:32.697Z,78.80
2017-10-04T12:06:00.301Z,76.90
2017-10-04T12:08:28.640Z,74.50
2017-10-04T12:10:56.243Z,74.50
2017-10-04T12:13:24.599Z,74.20
2017-10-04T12:15:52.166Z,73.40
2017-10-04T12:18:19.816Z,73.20
2017-10-04T12:20:47.430Z,75.10
2017-10-04T12:23:15.777Z,75.40
2017-10-04T12:25:43.363Z,75.30
2017-10-04T12:28:10.943Z,76.60
2017-10-04T12:30:39.333Z,76.30
2017-10-04T12:33:06.903Z,76.20
2017-10-04T12:35:34.496Z,77.30
2017-10-04T12:38:02.053Z,75.70
2017-10-04T12:40:29.668Z,77.40
2017-10-04T12:42:58.009Z,78.90
2017-10-04T12:45:25.598Z,78.20
2017-10-04T12:47:53.280Z,76.10
2017-10-04T12:50:21.627Z,76.80
2017-10-04T12:52:49.227Z,76.80
2017-10-04T12:55:16.814Z,76.20
2017-10-04T12:57:44.417Z,76.70
2017-10-04T13:00:11.990Z,79.20
2017-10-04T13:02:39.583Z,77.40
2017-10-04T13:05:07.928Z,78.60
2017-10-04T13:07:35.484Z,78.10
2017-10-04T13:10:03.089Z,78.80
2017-10-04T13:12:30.919Z,78.80
2017-10-04T13:14:58.566Z,79.60
2017-10-04T13:17:26.181Z,78.40
2017-10-04T13:19:54.028Z,77.50
2017-10-04T13:22:21.600Z,79.50
2017-10-04T13:24:49.221Z,80.20
2017-10-04T13:27:16.779Z,79.00
2017-10-04T13:29:44.383Z,78.20
2017-10-04T13:32:12.786Z,79.00
2017-10-04T13:34:40.369Z,79.00
2017-10-04T13:37:08.061Z,79.00
2017-10-04T13:39:35.711Z,80.60
2017-10-04T13:42:03.580Z,79.00
2017-10-04T13:44:31.920Z,80.40
2017-10-04T13:46:59.559Z,80.10
2017-10-04T13:49:27.198Z,78.80
2017-10-04T13:51:55.957Z,80.10
2017-10-04T13:54:24.239Z,80.00
2017-10-04T13:56:52.012Z,79.90
2017-10-04T13:59:19.674Z,80.60
2017-10-04T14:01:47.264Z,81.20
2017-10-04T14:04:17.222Z,79.30
2017-10-04T14:06:44.810Z,79.20
2017-10-04T14:09:12.425Z,81.80
2017-10-04T14:11:40.006Z,80.20
2017-10-04T14:14:08.502Z,79.60
2017-10-04T14:16:36.077Z,80.00
2017-10-04T14:19:03.724Z,80.40
2017-10-04T14:21:31.311Z,80.40
2017-10-04T14:23:58.879Z,81.40
2017-10-04T14:26:26.681Z,81.20
2017-10-04T14:28:55.019Z,81.00
2017-10-04T14:31:22.613Z,81.00
2017-10-04T14:33:51.099Z,82.80
2017-10-04T14:36:19.744Z,82.00
2017-10-04T14:38:47.629Z,82.00
2017-10-04T14:41:15.201Z,81.50
2017-10-04T14:43:42.786Z,82.80
2017-10-04T14:46:11.145Z,82.00
2017-10-04T14:48:38.713Z,82.00
2017-10-04T14:51:06.285Z,81.50
2017-10-04T14:53:33.859Z,81.00
2017-10-04T14:56:01.484Z,81.00
2017-10-04T14:58:30.062Z,81.20
2017-10-04T15:00:57.678Z,81.30
2017-10-04T15:03:25.293Z,81.70
2017-10-04T15:05:53.721Z,79.60
2017-10-04T15:08:21.366Z,79.60
2017-10-04T15:10:48.932Z,79.00
2017-10-04T15:13:16.536Z,81.70
2017-10-04T15:15:44.874Z,80.10
2017-10-04T15:18:12.521Z,80.00
2017-10-04T15:20:40.142Z,81.30
2017-10-04T15:23:08.544Z,82.10
2017-10-04T15:25:36.163Z,82.10
2017-10-04T15:28:04.551Z,80.90
2017-10-04T15:30:32.431Z,80.80
2017-10-04T15:33:00.031Z,81.20
2017-10-04T15:35:27.643Z,82.10
2017-10-04T15:37:55.207Z,82.20
2017-10-04T15:40:22.849Z,81.70
2017-10-04T15:42:50.419Z,82.30
2017-10-04T15:45:18.007Z,82.70
2017-10-04T15:47:45.579Z,82.10
2017-10-04T15:50:13.150Z,81.20
2017-10-04T15:52:40.743Z,82.40
2017-10-04T15:55:08.301Z,81.90
2017-10-04T15:57:36.658Z,82.80
2017-10-04T16:00:04.231Z,82.80
2017-10-04T16:02:32.611Z,83.50
2017-10-04T16:05:00.203Z,83.30
2017-10-04T16:07:27.922Z,82.40
2017-10-04T16:09:55.517Z,82.70
2017-10-04T16:12:24.218Z,83.50
2017-10-04T16:14:53.647Z,83.50
2017-10-04T16:17:21.877Z,82.90
2017-10-04T16:19:49.471Z,82.40
2017-10-04T16:22:17.129Z,82.80
2017-10-04T16:24:44.727Z,83.60
2017-10-04T16:27:12.280Z,83.30
2017-10-04T16:29:39.846Z,83.40
2017-10-04T16:32:07.520Z,84.00
2017-10-04T16:34:35.119Z,84.30
2017-10-04T16:37:02.977Z,83.90
2017-10-04T16:39:30.583Z,84.00
2017-10-04T16:41:58.989Z,84.30
2017-10-04T16:44:26.595Z,84.20
2017-10-04T16:46:54.337Z,84.10
2017-10-04T16:49:22.129Z,83.50
2017-10-04T16:51:49.717Z,84.80
2017-10-04T16:54:18.098Z,84.60
2017-10-04T16:56:45.702Z,84.60
2017-10-04T16:59:13.386Z,84.60
2017-10-04T17:01:40.971Z,85.30
2017-10-04T17:04:08.567Z,85.00
2017-10-04T17:06:36.933Z,84.90
2017-10-04T17:09:04.762Z,84.90
2017-10-04T17:11:32.448Z,85.70
2017-10-04T17:14:00.104Z,84.30
2017-10-04T17:16:27.882Z,85.00
2017-10-04T17:18:55.506Z,85.60
2017-10-04T17:21:23.426Z,86.20
2017-10-04T17:23:51.200Z,86.60
2017-10-04T17:26:19.038Z,86.40
2017-10-04T17:28:46.702Z,84.90
2017-10-04T17:31:14.700Z,85.40
2017-10-04T17:33:43.367Z,84.90
2017-10-04T17:36:11.241Z,84.90
2017-10-04T17:38:39.313Z,85.90
2017-10-04T17:41:07.292Z,85.40
2017-10-04T17:43:36.280Z,85.60
2017-10-04T17:46:04.271Z,85.90
2017-10-04T17:48:33.148Z,86.30
2017-10-04T17:51:01.122Z,85.90
2017-10-04T17:53:29.198Z,85.90
2017-10-04T17:55:57.502Z,87.30
2017-10-04T17:58:26.046Z,86.80
2017-10-04T18:00:54.960Z,86.30
2017-10-04T18:03:24.056Z,86.50
2017-10-04T18:05:52.212Z,86.50
2017-10-04T18:08:21.026Z,86.20
2017-10-04T18:10:50.533Z,85.80
2017-10-04T18:13:19.530Z,86.20
2017-10-04T18:15:48.839Z,85.80
2017-10-04T18:18:17.241Z,85.70
2017-10-04T18:20:47.652Z,86.50
2017-10-04T18:23:16.252Z,86.50
2017-10-04T18:25:46.020Z,87.10
2017-10-04T18:28:15.357Z,86.70
2017-10-04T18:30:43.845Z,86.30
2017-10-04T18:33:13.157Z,86.90
2017-10-04T18:35:42.663Z,86.50
2017-10-04T18:38:10.929Z,86.20
2017-10-04T18:40:39.104Z,87.20
2017-10-04T18:43:07.986Z,87.60
2017-10-04T18:45:36.889Z,87.10
2017-10-04T18:48:05.725Z,86.70
2017-10-04T18:50:39.860Z,86.50
2017-10-04T18:53:09.305Z,86.90
2017-10-04T18:55:37.997Z,86.80
2017-10-04T18:58:06.698Z,87.70
2017-10-04T19:00:34.455Z,87.20
2017-10-04T19:03:02.223Z,87.40
2017-10-04T19:05:30.305Z,87.50
2017-10-04T19:07:58.172Z,87.80
2017-10-04T19:10:26.040Z,86.80
2017-10-04T19:12:53.908Z,87.10
2017-10-04T19:15:21.510Z,86.80
2017-10-04T19:17:49.156Z,87.00
2017-10-04T19:20:16.969Z,86.80
2017-10-04T19:22:45.090Z,86.50
2017-10-04T19:25:12.955Z,86.40
2017-10-04T19:27:41.368Z,87.00
2017-10-04T19:30:08.998Z,87.10
2017-10-04T19:32:36.554Z,87.00
2017-10-04T19:35:04.151Z,87.30
2017-10-04T19:37:31.923Z,88.40
2017-10-04T19:39:59.658Z,87.40
2017-10-04T19:42:27.493Z,88.10
2017-10-04T19:44:56.024Z,87.80
2017-10-04T19:47:23.791Z,87.70
2017-10-04T19:49:51.388Z,87.90
2017-10-04T19:52:19.103Z,87.60
2017-10-04T19:54:46.688Z,88.60
2017-10-04T19:57:14.272Z,87.80
2017-10-04T19:59:41.860Z,89.30
2017-10-04T20:02:09.485Z,87.80
2017-10-04T20:04:37.060Z,88.10
2017-10-04T20:07:04.646Z,88.40
2017-10-04T20:09:32.247Z,87.70
2017-10-04T20:12:00.760Z,88.20
2017-10-04T20:14:28.426Z,88.20
2017-10-04T20:16:56.003Z,87.80
2017-10-04T20:19:23.613Z,88.20
2017-10-04T20:21:51.951Z,88.70
2017-10-04T20:24:19.635Z,88.60
2017-10-04T20:26:47.215Z,88.00
2017-10-04T20:29:15.562Z,88.60
2017-10-04T20:31:43.147Z,88.20
2017-10-04T20:34:10.723Z,88.60
2017-10-04T20:36:38.332Z,88.70
2017-10-04T20:39:05.929Z,89.50
2017-10-04T20:41:33.556Z,88.70
2017-10-04T20:44:01.145Z,89.20
2017-10-04T20:46:28.723Z,89.10
2017-10-04T20:48:56.385Z,89.60
2017-10-04T20:51:23.959Z,88.70
2017-10-04T20:53:52.315Z,89.40
2017-10-04T20:56:19.881Z,89.50
2017-10-04T20:58:47.504Z,88.90
2017-10-04T21:01:15.839Z,90.00
2017-10-04T21:03:43.425Z,89.90
2017-10-04T21:06:11.025Z,89.50
2017-10-04T21:08:38.608Z,89.60
2017-10-04T21:11:06.185Z,89.30
2017-10-04T21:13:33.755Z,89.20
2017-10-04T21:16:01.327Z,89.00
2017-10-04T21:18:28.933Z,89.60
2017-10-04T21:20:57.262Z,89.90
2017-10-04T21:23:24.941Z,89.90
2017-10-04T21:25:52.505Z,89.80
2017-10-04T21:28:20.117Z,89.50
2017-10-04T21:30:48.740Z,90.00
2017-10-04T21:33:16.334Z,90.00
2017-10-04T21:35:43.941Z,89.30
2017-10-04T21:38:11.520Z,89.80
2017-10-04T21:40:39.197Z,89.80
2017-10-04T21:43:06.788Z,90.10
2017-10-04T21:45:34.359Z,90.60
2017-10-04T21:48:01.955Z,90.70
2017-10-04T21:50:30.276Z,91.10
2017-10-04T21:52:58.121Z,91.00
2017-10-04T21:55:25.713Z,91.30
2017-10-04T21:57:53.294Z,91.30
2017-10-04T22:00:20.973Z,92.00
2017-10-04T22:02:48.569Z,92.40
2017-10-04T22:05:16.935Z,92.50
2017-10-04T22:07:44.507Z,92.50
2017-10-04T22:10:12.843Z,92.30
2017-10-04T22:12:40.443Z,92.30
2017-10-04T22:15:07.993Z,92.90
2017-10-04T22:17:35.600Z,92.60
2017-10-04T22:20:03.172Z,92.90
2017-10-04T22:22:30.972Z,93.30
2017-10-04T22:24:59.458Z,93.60
2017-10-04T22:27:38.390Z,93.30
2017-10-04T22:30:06.768Z,94.20
2017-10-04T22:32:34.480Z,94.00
2017-10-04T22:35:02.079Z,93.80
2017-10-04T22:37:29.651Z,93.50
2017-10-04T22:39:57.241Z,93.70
2017-10-04T22:42:25.392Z,94.00
2017-10-04T22:44:52.946Z,94.10
2017-10-04T22:47:20.712Z,94.30
2017-10-04T22:49:48.981Z,94.00
2017-10-04T22:52:17.484Z,93.70
2017-10-04T22:54:45.075Z,94.30
2017-10-04T22:57:12.698Z,94.50
2017-10-04T22:59:40.553Z,94.50
2017-10-04T23:02:08.133Z,94.00
2017-10-04T23:04:35.694Z,94.20
2017-10-04T23:07:03.263Z,94.40
2017-10-04T23:09:30.869Z,94.50
2017-10-04T23:11:58.442Z,94.20
2017-10-04T23:14:26.025Z,94.90
2017-10-04T23:16:54.387Z,94.90
2017-10-04T23:19:22.724Z,95.20
2017-10-04T23:21:50.339Z,95.20
2017-10-04T23:24:18.698Z,95.60
2017-10-04T23:26:46.343Z,95.20
2017-10-04T23:29:14.122Z,95.40
2017-10-04T23:31:41.722Z,95.80
2017-10-04T23:34:09.325Z,95.70
2017-10-04T23:36:36.896Z,95.90
2017-10-04T23:39:04.502Z,96.70
2017-10-04T23:41:32.057Z,96.40
2017-10-04T23:43:59.647Z,96.40
2017-10-04T23:46:28.168Z,96.60
2017-10-04T23:48:55.763Z,96.60
2017-10-04T23:51:23.335Z,96.90
2017-10-04T23:53:50.941Z,96.90
2017-10-04T23:56:19.389Z,96.80
2017-10-04T23:58:46.984Z,96.80
